createdAt,value
2023-01-28T00:00:39.544Z,15.53
2023-01-28T00:05:43.616Z,12.43
2023-01-28T00:10:46.244Z,12.30
2023-01-28T00:15:57.103Z,11.10
2023-01-28T00:21:02.565Z,10.33
2023-01-28T00:26:07.996Z,9.87
2023-01-28T00:31:12.195Z,7.23
2023-01-28T00:36:17.655Z,7.00
2023-01-28T00:41:23.231Z,6.60
2023-01-28T00:46:26.422Z,5.90
2023-01-28T00:51:30.440Z,6.43
2023-01-28T00:56:33.172Z,6.27
2023-01-28T01:01:36.085Z,6.77
2023-01-28T01:06:42.097Z,5.53
2023-01-28T01:11:44.858Z,5.90
2023-01-28T01:16:47.649Z,6.00
2023-01-28T01:21:51.647Z,7.03
2023-01-28T01:26:54.316Z,6.07
2023-01-28T01:31:57.099Z,6.47
2023-01-28T01:37:01.077Z,7.03
2023-01-28T01:42:04.156Z,6.80
2023-01-28T01:47:06.812Z,7.23
2023-01-28T01:52:14.831Z,7.23
2023-01-28T01:57:25.433Z,6.93
2023-01-28T02:02:28.545Z,7.40
2023-01-28T02:07:32.835Z,7.33
2023-01-28T02:12:37.824Z,7.20
2023-01-28T02:17:41.141Z,7.80
2023-01-28T02:23:17.381Z,7.53
2023-01-28T02:28:32.661Z,7.40
2023-01-28T02:33:39.525Z,7.47
2023-01-28T02:38:46.508Z,6.97
2023-01-28T02:43:50.667Z,7.20
2023-01-28T02:48:53.596Z,7.53
2023-01-28T02:54:04.752Z,7.03
2023-01-28T02:59:27.976Z,7.23
2023-01-28T03:04:34.794Z,6.77
2023-01-28T03:09:39.463Z,8.03
2023-01-28T03:15:03.663Z,8.90
2023-01-28T03:20:24.521Z,7.90
2023-01-28T03:25:46.446Z,7.40
2023-01-28T03:31:14.423Z,7.87
2023-01-28T03:36:34.944Z,7.93
2023-01-28T03:41:37.644Z,8.07
2023-01-28T03:46:42.601Z,7.07
2023-01-28T03:51:46.169Z,7.43
2023-01-28T03:56:49.818Z,6.33
2023-01-28T04:01:55.353Z,6.73
2023-01-28T04:06:58.144Z,6.93
2023-01-28T04:12:00.820Z,5.80
2023-01-28T04:17:05.565Z,5.57
2023-01-28T04:22:12.178Z,5.80
2023-01-28T04:27:14.866Z,6.07
2023-01-28T04:32:18.824Z,5.73
2023-01-28T04:37:21.465Z,6.30
2023-01-28T04:42:24.151Z,5.47
2023-01-28T04:47:28.164Z,5.27
2023-01-28T04:52:30.850Z,5.03
2023-01-28T04:57:33.762Z,5.10
2023-01-28T05:02:37.730Z,3.93
2023-01-28T05:07:40.416Z,3.90
2023-01-28T05:12:45.289Z,4.23
2023-01-28T05:17:49.328Z,3.60
2023-01-28T05:22:52.088Z,4.33
2023-01-28T05:27:55.087Z,3.30
2023-01-28T05:32:59.051Z,3.37
2023-01-28T05:38:01.705Z,3.63
2023-01-28T05:43:04.341Z,4.03
2023-01-28T05:48:08.843Z,3.77
2023-01-28T05:53:11.480Z,4.63
2023-01-28T05:58:14.149Z,3.70
2023-01-28T06:03:18.130Z,4.20
2023-01-28T06:08:20.840Z,3.87
2023-01-28T06:13:23.533Z,4.37
2023-01-28T06:18:27.484Z,4.07
2023-01-28T06:23:30.209Z,3.90
2023-01-28T06:28:33.128Z,4.47
2023-01-28T06:33:37.188Z,4.00
2023-01-28T06:38:39.845Z,4.93
2023-01-28T06:43:42.480Z,3.50
2023-01-28T06:48:46.517Z,4.30
2023-01-28T06:53:51.583Z,3.67
2023-01-28T06:58:54.201Z,3.67
2023-01-28T07:03:58.617Z,3.10
2023-01-28T07:09:01.267Z,3.27
2023-01-28T07:14:04.821Z,3.23
2023-01-28T07:19:08.787Z,3.10
2023-01-28T07:24:13.831Z,3.17
2023-01-28T07:29:16.540Z,3.33
2023-01-28T07:34:20.520Z,3.20
2023-01-28T07:39:23.261Z,3.67
2023-01-28T07:44:25.971Z,13.97
2023-01-28T07:49:30.335Z,3.63
2023-01-28T07:54:33.451Z,3.03
2023-01-28T07:59:36.145Z,2.20
2023-01-28T08:04:41.103Z,2.70
2023-01-28T08:09:43.794Z,2.33
2023-01-28T08:14:46.468Z,2.20
2023-01-28T08:19:50.555Z,2.03
2023-01-28T08:24:53.221Z,2.00
2023-01-28T08:29:55.890Z,2.90
2023-01-28T08:35:00.339Z,2.57
2023-01-28T08:40:04.152Z,2.40
2023-01-28T08:45:08.521Z,2.07
2023-01-28T08:50:13.073Z,2.27
2023-01-28T08:55:16.422Z,2.17
2023-01-28T09:00:20.507Z,3.13
2023-01-28T09:05:24.500Z,2.67
2023-01-28T09:10:27.161Z,2.60
2023-01-28T09:15:33.221Z,2.67
2023-01-28T09:20:38.694Z,2.47
